createdAt,value
2023-02-27T00:02:19.864Z,0.40
2023-02-27T00:04:51.144Z,0.40
2023-02-27T00:07:25.909Z,0.40
2023-02-27T00:09:57.325Z,0.40
2023-02-27T00:12:30.750Z,0.40
2023-02-27T00:15:00.205Z,0.40
2023-02-27T00:17:30.534Z,0.40
2023-02-27T00:20:01.440Z,0.37
2023-02-27T00:22:30.992Z,0.50
2023-02-27T00:25:00.602Z,0.40
2023-02-27T00:27:30.171Z,0.40
2023-02-27T00:29:59.712Z,0.40
2023-02-27T00:32:29.649Z,0.40
2023-02-27T00:34:59.252Z,0.40
2023-02-27T00:37:30.386Z,0.40
2023-02-27T00:40:00.467Z,0.50
2023-02-27T00:42:31.245Z,0.40
2023-02-27T00:45:00.790Z,0.40
2023-02-27T00:47:30.346Z,0.40
2023-02-27T00:49:59.942Z,0.30
2023-02-27T00:52:30.824Z,0.40
2023-02-27T00:55:02.402Z,0.40
2023-02-27T00:57:32.693Z,0.40
2023-02-27T01:00:02.264Z,0.40
2023-02-27T01:02:31.797Z,0.40
2023-02-27T01:05:01.312Z,0.40
2023-02-27T01:07:32.315Z,0.30
2023-02-27T01:10:03.788Z,0.40
2023-02-27T01:12:33.347Z,0.40
2023-02-27T01:15:02.964Z,0.40
2023-02-27T01:17:32.515Z,0.40
2023-02-27T01:20:02.004Z,0.40
2023-02-27T01:22:33.384Z,0.40
2023-02-27T01:25:03.087Z,0.40
2023-02-27T01:27:32.661Z,0.40
2023-02-27T01:30:02.160Z,0.40
2023-02-27T01:32:31.732Z,0.40
2023-02-27T01:35:01.378Z,0.40
2023-02-27T01:37:30.943Z,0.40
2023-02-27T01:40:01.894Z,0.40
2023-02-27T01:42:31.400Z,0.40
2023-02-27T01:45:08.371Z,0.40
2023-02-27T01:47:38.785Z,0.37
2023-02-27T01:50:09.167Z,0.30
2023-02-27T01:52:39.278Z,0.40
2023-02-27T01:55:12.864Z,0.40
2023-02-27T01:57:43.121Z,0.30
2023-02-27T02:00:13.162Z,0.33
2023-02-27T02:02:44.513Z,0.30
2023-02-27T02:05:16.834Z,0.30
2023-02-27T02:07:46.686Z,0.30
2023-02-27T02:10:17.672Z,0.30
2023-02-27T02:12:49.271Z,0.40
2023-02-27T02:15:18.976Z,0.40
2023-02-27T02:17:52.869Z,0.40
2023-02-27T02:20:42.965Z,0.40
2023-02-27T02:23:24.445Z,0.30
2023-02-27T02:26:19.637Z,0.40
2023-02-27T02:29:08.944Z,0.40
2023-02-27T02:31:53.763Z,0.30
2023-02-27T02:34:42.697Z,0.40
2023-02-27T02:37:26.302Z,0.40
2023-02-27T02:40:10.865Z,0.30
2023-02-27T02:42:43.931Z,0.40
2023-02-27T02:45:17.330Z,0.40
2023-02-27T02:47:54.324Z,0.30
2023-02-27T02:50:26.824Z,0.40
2023-02-27T02:53:03.009Z,0.30
2023-02-27T02:55:36.013Z,0.40
2023-02-27T02:58:08.740Z,0.30
2023-02-27T03:00:40.245Z,0.40
2023-02-27T03:03:15.197Z,0.30
2023-02-27T03:05:50.171Z,0.40
2023-02-27T03:08:22.069Z,0.40
2023-02-27T03:10:56.251Z,0.30
2023-02-27T03:13:29.572Z,0.40
2023-02-27T03:16:01.754Z,0.30
2023-02-27T03:18:34.499Z,0.37
2023-02-27T03:21:06.910Z,0.30
2023-02-27T03:23:38.436Z,0.30
2023-02-27T03:26:09.914Z,0.40
2023-02-27T03:28:40.514Z,0.40
2023-02-27T03:31:12.052Z,0.40
2023-02-27T03:33:45.175Z,0.40
2023-02-27T03:36:21.491Z,0.40
2023-02-27T03:38:53.398Z,0.30
2023-02-27T03:41:28.215Z,0.37
2023-02-27T03:44:12.523Z,0.37
2023-02-27T03:46:42.366Z,0.40
2023-02-27T03:49:12.613Z,0.30
2023-02-27T03:51:42.469Z,0.40
2023-02-27T03:54:15.423Z,0.40
2023-02-27T03:56:50.853Z,0.30
2023-02-27T03:59:21.961Z,0.30
2023-02-27T04:01:54.218Z,0.40
2023-02-27T04:04:24.509Z,0.40
2023-02-27T04:07:26.283Z,0.30
2023-02-27T04:10:02.138Z,0.40
2023-02-27T04:12:39.479Z,0.40
2023-02-27T04:15:14.970Z,0.30
2023-02-27T04:17:49.853Z,0.47
2023-02-27T04:20:24.461Z,0.50
2023-02-27T04:22:55.252Z,0.40
2023-02-27T04:25:29.638Z,0.40
2023-02-27T04:28:06.806Z,0.40
2023-02-27T04:30:41.413Z,0.40
2023-02-27T04:33:12.446Z,0.40
2023-02-27T04:35:45.604Z,0.40
2023-02-27T04:38:19.469Z,0.40
2023-02-27T04:40:51.641Z,0.40
2023-02-27T04:43:24.316Z,0.40
2023-02-27T04:45:55.457Z,0.40
2023-02-27T04:48:26.263Z,0.40
2023-02-27T04:50:58.076Z,0.30
2023-02-27T04:53:29.600Z,0.40
2023-02-27T04:56:01.982Z,0.40
2023-02-27T04:58:35.107Z,0.40
2023-02-27T05:01:07.093Z,0.30
2023-02-27T05:03:37.721Z,0.40
2023-02-27T05:06:08.615Z,0.40
2023-02-27T05:08:41.269Z,0.40
2023-02-27T05:11:13.938Z,0.30
2023-02-27T05:13:47.732Z,0.40
2023-02-27T05:16:21.009Z,0.40
2023-02-27T05:18:51.323Z,0.40
2023-02-27T05:21:24.601Z,0.40
2023-02-27T05:23:59.685Z,0.40
2023-02-27T05:26:33.524Z,0.40
2023-02-27T05:29:07.591Z,0.40
2023-02-27T05:31:39.051Z,0.40
2023-02-27T05:34:11.774Z,0.43
2023-02-27T05:36:43.626Z,0.40
2023-02-27T05:39:13.737Z,0.40
2023-02-27T05:41:44.640Z,0.40
2023-02-27T05:44:17.533Z,0.40
2023-02-27T05:46:49.700Z,0.30
2023-02-27T05:49:20.551Z,0.40
2023-02-27T05:51:51.841Z,0.50
2023-02-27T05:54:24.817Z,0.40
2023-02-27T05:56:56.626Z,0.40
2023-02-27T05:59:29.288Z,0.40
2023-02-27T06:01:58.827Z,0.40
2023-02-27T06:04:28.310Z,0.40
2023-02-27T06:06:57.836Z,0.40
2023-02-27T06:09:27.368Z,0.50
2023-02-27T06:11:57.033Z,0.40
2023-02-27T06:14:27.954Z,0.30
2023-02-27T06:16:57.460Z,0.40
2023-02-27T06:19:27.055Z,0.40
2023-02-27T06:21:56.615Z,0.40
2023-02-27T06:24:26.781Z,0.40
2023-02-27T06:26:56.238Z,0.40
2023-02-27T06:29:25.780Z,0.40
2023-02-27T06:31:56.710Z,0.40
2023-02-27T06:34:26.231Z,0.40
2023-02-27T06:36:55.679Z,0.40
2023-02-27T06:39:25.338Z,0.40
2023-02-27T06:41:54.779Z,0.37
2023-02-27T06:44:24.220Z,0.40
2023-02-27T06:46:53.681Z,0.40
2023-02-27T06:49:24.718Z,0.40
2023-02-27T06:51:54.218Z,0.40
2023-02-27T06:54:23.731Z,0.40
2023-02-27T06:56:53.258Z,0.40
2023-02-27T06:59:22.791Z,0.40
2023-02-27T07:01:52.269Z,0.40
2023-02-27T07:04:21.860Z,0.40
2023-02-27T07:07:35.189Z,0.40
2023-02-27T07:09:42.441Z,0.40
2023-02-27T07:16:42.968Z,0.45
2023-02-27T07:19:12.569Z,0.40
2023-02-27T07:26:39.490Z,0.32
2023-02-27T09:33:24.747Z,0.30
2023-02-27T09:58:15.820Z,0.30
2023-02-27T10:00:47.751Z,0.30
2023-02-27T10:03:39.325Z,0.30
2023-02-27T10:06:17.615Z,0.30
2023-02-27T10:08:51.838Z,0.30
2023-02-27T10:24:08.963Z,0.30
2023-02-27T10:26:39.677Z,0.30
2023-02-27T10:29:17.469Z,0.30
2023-02-27T10:31:48.576Z,0.20
2023-02-27T10:34:18.766Z,0.30
2023-02-27T10:36:48.453Z,0.30
2023-02-27T10:39:20.979Z,0.30
2023-02-27T10:41:51.700Z,0.30
2023-02-27T10:44:21.340Z,0.30
2023-02-27T10:46:52.101Z,0.30
2023-02-27T10:49:22.941Z,0.20
2023-02-27T10:52:14.469Z,0.20
2023-02-27T10:54:45.834Z,0.20
2023-02-27T10:57:23.429Z,0.30
2023-02-27T11:00:06.465Z,0.20
2023-02-27T11:05:27.613Z,0.30
2023-02-27T11:07:57.731Z,0.27
2023-02-27T11:10:30.145Z,0.30
2023-02-27T11:13:01.188Z,0.20
2023-02-27T11:15:31.744Z,0.20
2023-02-27T11:18:19.771Z,0.20
2023-02-27T11:23:22.692Z,0.20
2023-02-27T11:26:11.162Z,0.30
2023-02-27T11:28:40.688Z,0.20
2023-02-27T11:31:17.203Z,0.20
2023-02-27T11:33:51.192Z,0.25
2023-02-27T11:36:23.563Z,0.15
2023-02-27T11:39:09.079Z,0.30
2023-02-27T11:41:44.776Z,0.20
2023-02-27T11:44:18.013Z,0.30
2023-02-27T11:46:55.059Z,0.20
2023-02-27T11:49:29.379Z,0.20
2023-02-27T11:52:21.757Z,0.20
2023-02-27T11:54:52.713Z,0.20
2023-02-27T11:57:26.590Z,0.20
2023-02-27T11:59:59.509Z,0.20
2023-02-27T12:02:31.728Z,0.20
2023-02-27T12:05:05.194Z,0.20
2023-02-27T12:07:40.320Z,0.20
2023-02-27T12:10:27.798Z,0.20
2023-02-27T12:13:00.554Z,0.20
2023-02-27T12:15:32.495Z,0.20
2023-02-27T12:20:35.270Z,0.20
2023-02-27T12:23:08.101Z,0.20
2023-02-27T12:25:40.507Z,0.20
2023-02-27T12:28:15.235Z,0.20
2023-02-27T12:30:49.988Z,0.13
2023-02-27T12:33:25.469Z,0.10
2023-02-27T12:35:57.547Z,0.10
2023-02-27T12:38:27.173Z,0.10
2023-02-27T12:41:03.715Z,0.10
2023-02-27T12:43:38.493Z,0.20
2023-02-27T12:46:23.253Z,0.20
2023-02-27T12:49:02.136Z,0.20
2023-02-27T12:51:36.975Z,0.10
2023-02-27T12:54:26.456Z,0.20
2023-02-27T12:57:04.521Z,0.20
2023-02-27T12:59:42.313Z,0.10
2023-02-27T13:02:20.256Z,0.20
2023-02-27T13:04:57.208Z,0.20
2023-02-27T13:07:29.536Z,0.20
2023-02-27T13:10:01.239Z,0.20
2023-02-27T13:12:35.365Z,0.20
2023-02-27T13:15:08.107Z,0.20
2023-02-27T13:17:40.578Z,0.20
2023-02-27T13:20:19.722Z,0.20
2023-02-27T13:22:53.034Z,0.20
2023-02-27T13:25:23.197Z,0.20
2023-02-27T13:27:53.993Z,0.20
2023-02-27T13:30:27.302Z,0.20
2023-02-27T13:33:00.637Z,0.20
2023-02-27T13:35:36.229Z,0.20
2023-02-27T13:38:25.855Z,0.20
2023-02-27T13:40:55.481Z,0.20
2023-02-27T13:43:46.327Z,0.20
2023-02-27T13:46:24.955Z,0.20
2023-02-27T13:48:54.742Z,0.20
2023-02-27T13:51:42.885Z,0.20
2023-02-27T13:54:23.457Z,0.20
2023-02-27T13:57:07.189Z,0.20
2023-02-27T13:59:39.596Z,0.20
2023-02-27T14:02:30.970Z,0.20
2023-02-27T14:05:03.247Z,0.20
2023-02-27T14:07:34.665Z,0.20
2023-02-27T14:10:06.167Z,0.20
2023-02-27T14:12:45.470Z,0.20
2023-02-27T14:15:30.452Z,0.20
2023-02-27T14:18:13.984Z,0.20
2023-02-27T14:20:50.141Z,0.20
2023-02-27T14:23:22.397Z,0.20
2023-02-27T14:25:54.223Z,0.30
2023-02-27T14:28:27.157Z,0.20
2023-02-27T14:30:59.348Z,0.20
2023-02-27T14:33:40.005Z,0.20
2023-02-27T14:36:11.995Z,0.20
2023-02-27T14:38:41.603Z,0.20
2023-02-27T14:41:17.102Z,0.20
2023-02-27T14:43:55.064Z,0.20
2023-02-27T14:46:26.465Z,0.20
2023-02-27T14:48:58.821Z,0.20
2023-02-27T14:51:30.413Z,0.20
2023-02-27T14:54:04.118Z,0.20
2023-02-27T14:56:34.242Z,0.20
2023-02-27T14:59:04.920Z,0.20
2023-02-27T15:01:38.511Z,0.20
2023-02-27T15:04:09.466Z,0.20
2023-02-27T15:06:45.172Z,0.20
2023-02-27T15:09:21.930Z,0.20
2023-02-27T15:12:03.119Z,0.20
2023-02-27T15:14:35.308Z,0.20
2023-02-27T15:17:05.935Z,0.20
2023-02-27T15:19:37.277Z,0.20
2023-02-27T15:22:26.126Z,0.20
2023-02-27T15:25:07.871Z,0.20
2023-02-27T15:27:38.584Z,0.20
2023-02-27T15:30:09.601Z,0.20
2023-02-27T15:32:41.521Z,0.20
2023-02-27T15:35:17.646Z,0.30
2023-02-27T15:37:50.660Z,0.20
2023-02-27T15:40:22.436Z,0.20
2023-02-27T15:42:52.219Z,0.20
2023-02-27T15:45:22.906Z,0.20
2023-02-27T15:47:52.524Z,0.20
2023-02-27T15:50:28.733Z,0.27
2023-02-27T15:53:01.706Z,0.20
2023-02-27T15:55:32.602Z,0.30
2023-02-27T15:58:03.657Z,0.20
2023-02-27T16:00:33.713Z,0.20
2023-02-27T16:03:03.425Z,0.23
2023-02-27T16:05:36.453Z,0.27
2023-02-27T16:08:07.076Z,0.20
2023-02-27T16:10:38.167Z,0.20
2023-02-27T16:13:34.891Z,0.20
2023-02-27T16:16:05.565Z,0.20
2023-02-27T16:18:36.024Z,0.20
2023-02-27T16:21:14.978Z,0.20
2023-02-27T16:23:44.604Z,0.30
2023-02-27T16:26:24.122Z,0.20
2023-02-27T16:28:54.689Z,0.20
2023-02-27T16:31:25.882Z,0.30
2023-02-27T16:33:56.370Z,0.20
2023-02-27T16:36:28.063Z,0.20
2023-02-27T16:38:57.792Z,0.20
2023-02-27T16:41:27.459Z,0.30
2023-02-27T16:43:56.986Z,0.20
2023-02-27T16:46:26.693Z,0.20
2023-02-27T16:49:00.748Z,0.20
2023-02-27T16:51:35.914Z,0.20
2023-02-27T16:54:06.633Z,0.20
2023-02-27T16:56:38.755Z,0.30
2023-02-27T16:59:08.798Z,0.30
2023-02-27T17:01:38.354Z,0.30
2023-02-27T17:04:19.672Z,0.20
2023-02-27T17:06:54.780Z,0.30
2023-02-27T17:09:27.295Z,0.30
2023-02-27T17:11:57.291Z,0.30
2023-02-27T17:14:26.858Z,0.30
2023-02-27T17:16:56.438Z,0.20
2023-02-27T17:19:28.771Z,0.20
2023-02-27T17:21:59.709Z,0.20
2023-02-27T17:24:29.175Z,0.23
2023-02-27T17:26:58.864Z,0.30
2023-02-27T17:29:28.773Z,0.30
2023-02-27T17:32:00.371Z,0.20
2023-02-27T17:34:29.909Z,0.20
2023-02-27T17:37:01.219Z,0.30
2023-02-27T17:39:30.771Z,0.30
2023-02-27T17:42:00.280Z,0.30
2023-02-27T17:44:29.934Z,0.23
2023-02-27T17:46:59.436Z,0.30
2023-02-27T17:49:29.009Z,0.20
2023-02-27T17:52:00.626Z,0.20
2023-02-27T17:54:31.528Z,0.30
2023-02-27T17:57:01.088Z,0.20
2023-02-27T17:59:30.853Z,0.20
2023-02-27T18:02:00.618Z,0.20
2023-02-27T18:04:30.104Z,0.20
2023-02-27T18:06:59.649Z,0.30
2023-02-27T18:09:29.140Z,0.30
2023-02-27T18:12:00.141Z,0.30
2023-02-27T18:14:29.614Z,0.27
2023-02-27T18:16:59.092Z,0.20
2023-02-27T18:19:32.362Z,0.20
2023-02-27T18:22:02.129Z,0.30
2023-02-27T18:24:31.614Z,0.30
2023-02-27T18:27:02.514Z,0.30
2023-02-27T18:29:32.084Z,0.30
2023-02-27T18:32:01.640Z,0.27
2023-02-27T18:34:31.425Z,0.30
2023-02-27T18:37:01.198Z,0.30
2023-02-27T18:39:31.120Z,0.25
2023-02-27T18:42:01.988Z,0.30
2023-02-27T18:44:31.483Z,0.30
2023-02-27T18:47:00.948Z,0.30
2023-02-27T18:49:30.593Z,0.30
2023-02-27T18:52:00.095Z,0.30
2023-02-27T18:54:29.712Z,0.30
2023-02-27T18:57:00.705Z,0.30
2023-02-27T18:59:31.604Z,0.30
2023-02-27T19:02:01.356Z,0.20
2023-02-27T19:04:33.404Z,0.30
2023-02-27T19:07:02.967Z,0.20
2023-02-27T19:09:32.856Z,0.30
2023-02-27T19:12:02.709Z,0.30
2023-02-27T19:14:33.622Z,0.30
2023-02-27T19:17:03.131Z,0.20
2023-02-27T19:19:32.685Z,0.20
2023-02-27T19:22:02.210Z,0.30
2023-02-27T19:24:31.873Z,0.30
2023-02-27T19:27:01.469Z,0.30
2023-02-27T19:29:30.988Z,0.30
2023-02-27T19:32:03.128Z,0.30
2023-02-27T19:34:32.701Z,0.30
2023-02-27T19:37:02.188Z,0.20
2023-02-27T19:39:31.902Z,0.30
2023-02-27T19:42:01.452Z,0.30
2023-02-27T19:44:31.006Z,0.30
2023-02-27T19:47:02.018Z,0.30
2023-02-27T19:49:31.594Z,0.20
2023-02-27T19:52:02.970Z,0.30
2023-02-27T19:54:33.106Z,0.20
2023-02-27T19:57:02.812Z,0.20
2023-02-27T19:59:32.268Z,0.28
2023-02-27T20:02:03.257Z,0.30
2023-02-27T20:04:32.735Z,0.20
2023-02-27T20:07:02.472Z,0.28
2023-02-27T20:09:33.239Z,0.20
2023-02-27T20:12:02.968Z,0.30
2023-02-27T20:14:32.732Z,0.20
2023-02-27T20:17:03.520Z,0.20
2023-02-27T20:19:32.957Z,0.30
2023-02-27T20:22:04.287Z,0.30
2023-02-27T20:24:33.731Z,0.30
2023-02-27T20:27:03.205Z,0.30
2023-02-27T20:29:32.712Z,0.20
2023-02-27T20:32:04.163Z,0.30
2023-02-27T20:34:33.835Z,0.30
2023-02-27T20:37:03.474Z,0.20
2023-02-27T20:39:33.300Z,0.30
2023-02-27T20:42:02.786Z,0.30
2023-02-27T20:44:32.314Z,0.30
2023-02-27T20:47:01.858Z,0.22
2023-02-27T20:49:32.793Z,0.30
2023-02-27T20:52:02.298Z,0.30
2023-02-27T20:54:31.848Z,0.30
2023-02-27T20:57:01.370Z,0.20
2023-02-27T20:59:30.943Z,0.30
2023-02-27T21:02:00.389Z,0.30
2023-02-27T21:04:42.499Z,0.30
2023-02-27T21:07:14.218Z,0.30
2023-02-27T21:09:43.760Z,0.30
2023-02-27T21:12:13.512Z,0.27
2023-02-27T21:14:44.503Z,0.30
2023-02-27T21:17:14.450Z,0.30
2023-02-27T21:19:43.961Z,0.30
2023-02-27T21:22:16.334Z,0.30
2023-02-27T21:24:46.815Z,0.30
2023-02-27T21:27:19.724Z,0.30
2023-02-27T21:29:49.899Z,0.30
2023-02-27T21:32:19.645Z,0.30
2023-02-27T21:34:49.200Z,0.30
2023-02-27T21:37:20.242Z,0.30
2023-02-27T21:39:52.527Z,0.30
2023-02-27T21:42:22.510Z,0.30
2023-02-27T21:44:52.073Z,0.30
2023-02-27T21:47:21.577Z,0.30
2023-02-27T21:49:52.164Z,0.20
2023-02-27T21:52:23.046Z,0.30
2023-02-27T21:54:54.130Z,0.30
2023-02-27T21:57:23.653Z,0.30
2023-02-27T21:59:53.118Z,0.30
2023-02-27T22:02:22.661Z,0.30
2023-02-27T22:04:52.193Z,0.30
2023-02-27T22:07:23.154Z,0.30
2023-02-27T22:09:52.649Z,0.30
2023-02-27T22:12:23.059Z,0.30
2023-02-27T22:14:52.609Z,0.30
2023-02-27T22:17:22.121Z,0.30
2023-02-27T22:19:51.615Z,0.30
2023-02-27T22:22:21.541Z,0.30
2023-02-27T22:24:52.856Z,0.30
2023-02-27T22:27:23.004Z,0.30
2023-02-27T22:29:53.103Z,0.30
2023-02-27T22:32:23.284Z,0.30
2023-02-27T22:34:53.274Z,0.30
2023-02-27T22:37:23.767Z,0.30
2023-02-27T22:39:55.502Z,0.30
2023-02-27T22:42:25.377Z,0.30
2023-02-27T22:44:55.266Z,0.30
2023-02-27T22:47:24.890Z,0.30
2023-02-27T22:49:54.427Z,0.30
2023-02-27T22:52:23.921Z,0.30
2023-02-27T22:54:54.799Z,0.30
2023-02-27T22:57:24.349Z,0.22
2023-02-27T22:59:53.833Z,0.30
2023-02-27T23:02:23.305Z,0.30
2023-02-27T23:04:52.786Z,0.30
2023-02-27T23:07:22.300Z,0.30
2023-02-27T23:09:51.804Z,0.30
2023-02-27T23:12:23.121Z,0.30
2023-02-27T23:14:52.623Z,0.30
2023-02-27T23:17:22.133Z,0.30
2023-02-27T23:19:51.632Z,0.40
2023-02-27T23:22:21.149Z,0.30
2023-02-27T23:24:50.641Z,0.40
2023-02-27T23:27:26.196Z,0.30
2023-02-27T23:29:57.902Z,0.30
2023-02-27T23:32:27.497Z,0.30
2023-02-27T23:34:56.992Z,0.30
2023-02-27T23:37:26.496Z,0.30
2023-02-27T23:39:56.032Z,0.30
2023-02-27T23:42:25.549Z,0.40
2023-02-27T23:45:07.180Z,0.40
2023-02-27T23:47:44.938Z,0.40
2023-02-27T23:50:14.565Z,0.30
2023-02-27T23:52:44.814Z,0.30
2023-02-27T23:55:14.450Z,0.30
2023-02-27T23:57:44.011Z,0.30
